sensor_id;sensor_type;location;lat;lon;timestamp;P1;durP1;ratioP1;P2;durP2;ratioP2
15833;SDS011;8017;50.812;4.934;2022-08-14T00:02:46;4.50;;;3.60;;
15833;SDS011;8017;50.812;4.934;2022-08-14T00:05:49;3.97;;;3.07;;
15833;SDS011;8017;50.812;4.934;2022-08-14T00:08:51;8.23;;;2.60;;
15833;SDS011;8017;50.812;4.934;2022-08-14T00:11:54;4.23;;;3.13;;
15833;SDS011;8017;50.812;4.934;2022-08-14T00:14:56;4.17;;;3.07;;
15833;SDS011;8017;50.812;4.934;2022-08-14T00:18:00;6.53;;;3.13;;
15833;SDS011;8017;50.812;4.934;2022-08-14T00:21:03;3.70;;;3.40;;
15833;SDS011;8017;50.812;4.934;2022-08-14T00:24:05;6.37;;;3.30;;
15833;SDS011;8017;50.812;4.934;2022-08-14T00:27:07;4.03;;;2.97;;
15833;SDS011;8017;50.812;4.934;2022-08-14T00:30:09;4.13;;;3.10;;
15833;SDS011;8017;50.812;4.934;2022-08-14T00:33:14;3.60;;;2.20;;
15833;SDS011;8017;50.812;4.934;2022-08-14T00:36:16;3.37;;;2.60;;
15833;SDS011;8017;50.812;4.934;2022-08-14T00:39:18;3.63;;;2.90;;
15833;SDS011;8017;50.812;4.934;2022-08-14T00:42:19;3.13;;;2.80;;
15833;SDS011;8017;50.812;4.934;2022-08-14T00:45:22;3.40;;;3.10;;
15833;SDS011;8017;50.812;4.934;2022-08-14T00:48:25;7.70;;;3.57;;
15833;SDS011;8017;50.812;4.934;2022-08-14T00:51:27;4.80;;;3.20;;
15833;SDS011;8017;50.812;4.934;2022-08-14T00:54:32;3.63;;;3.33;;
15833;SDS011;8017;50.812;4.934;2022-08-14T00:57:36;5.53;;;2.43;;
15833;SDS011;8017;50.812;4.934;2022-08-14T01:00:39;3.90;;;2.83;;
15833;SDS011;8017;50.812;4.934;2022-08-14T01:03:42;5.00;;;3.10;;
15833;SDS011;8017;50.812;4.934;2022-08-14T01:06:44;4.03;;;2.63;;
15833;SDS011;8017;50.812;4.934;2022-08-14T01:09:46;3.67;;;2.97;;
15833;SDS011;8017;50.812;4.934;2022-08-14T01:12:49;3.90;;;3.50;;
15833;SDS011;8017;50.812;4.934;2022-08-14T01:15:53;3.53;;;3.23;;
15833;SDS011;8017;50.812;4.934;2022-08-14T01:18:58;6.10;;;3.33;;
15833;SDS011;8017;50.812;4.934;2022-08-14T01:22:15;5.57;;;4.00;;
15833;SDS011;8017;50.812;4.934;2022-08-14T01:25:18;5.33;;;4.10;;
15833;SDS011;8017;50.812;4.934;2022-08-14T01:28:21;4.17;;;3.77;;
15833;SDS011;8017;50.812;4.934;2022-08-14T01:31:25;5.10;;;3.60;;
15833;SDS011;8017;50.812;4.934;2022-08-14T01:34:28;4.83;;;4.37;;
15833;SDS011;8017;50.812;4.934;2022-08-14T01:37:33;4.77;;;3.80;;
15833;SDS011;8017;50.812;4.934;2022-08-14T01:40:35;4.63;;;3.70;;
15833;SDS011;8017;50.812;4.934;2022-08-14T01:43:44;5.13;;;2.97;;
15833;SDS011;8017;50.812;4.934;2022-08-14T01:46:48;4.10;;;3.27;;
15833;SDS011;8017;50.812;4.934;2022-08-14T01:49:55;4.70;;;3.20;;
15833;SDS011;8017;50.812;4.934;2022-08-14T01:52:58;5.03;;;3.47;;
15833;SDS011;8017;50.812;4.934;2022-08-14T01:56:02;4.90;;;3.60;;
15833;SDS011;8017;50.812;4.934;2022-08-14T01:59:06;5.47;;;3.90;;
15833;SDS011;8017;50.812;4.934;2022-08-14T02:02:09;6.60;;;3.63;;
15833;SDS011;8017;50.812;4.934;2022-08-14T02:05:14;4.77;;;3.93;;
15833;SDS011;8017;50.812;4.934;2022-08-14T02:08:17;4.90;;;3.80;;
15833;SDS011;8017;50.812;4.934;2022-08-14T02:11:19;3.97;;;3.57;;
15833;SDS011;8017;50.812;4.934;2022-08-14T02:14:24;3.60;;;3.30;;
15833;SDS011;8017;50.812;4.934;2022-08-14T02:17:26;3.83;;;3.33;;
15833;SDS011;8017;50.812;4.934;2022-08-14T02:20:29;8.20;;;4.10;;
15833;SDS011;8017;50.812;4.934;2022-08-14T02:23:34;5.87;;;3.90;;
15833;SDS011;8017;50.812;4.934;2022-08-14T02:26:36;5.87;;;4.00;;
15833;SDS011;8017;50.812;4.934;2022-08-14T02:29:40;5.37;;;3.67;;
15833;SDS011;8017;50.812;4.934;2022-08-14T02:32:42;6.37;;;3.83;;
15833;SDS011;8017;50.812;4.934;2022-08-14T02:35:44;6.27;;;3.50;;
15833;SDS011;8017;50.812;4.934;2022-08-14T02:38:48;4.23;;;3.83;;
15833;SDS011;8017;50.812;4.934;2022-08-14T02:41:50;5.53;;;3.83;;
15833;SDS011;8017;50.812;4.934;2022-08-14T02:44:52;4.67;;;4.20;;
15833;SDS011;8017;50.812;4.934;2022-08-14T02:47:54;4.63;;;4.23;;
15833;SDS011;8017;50.812;4.934;2022-08-14T02:50:56;4.90;;;4.40;;
15833;SDS011;8017;50.812;4.934;2022-08-14T02:54:00;5.73;;;5.10;;
15833;SDS011;8017;50.812;4.934;2022-08-14T02:57:02;5.87;;;5.00;;
15833;SDS011;8017;50.812;4.934;2022-08-14T03:00:06;4.97;;;4.30;;
15833;SDS011;8017;50.812;4.934;2022-08-14T03:03:09;12.63;;;5.00;;
15833;SDS011;8017;50.812;4.934;2022-08-14T03:06:11;5.20;;;4.57;;
15833;SDS011;8017;50.812;4.934;2022-08-14T03:09:16;8.03;;;4.93;;
15833;SDS011;8017;50.812;4.934;2022-08-14T03:12:18;6.17;;;5.67;;
15833;SDS011;8017;50.812;4.934;2022-08-14T03:15:20;7.70;;;5.23;;
15833;SDS011;8017;50.812;4.934;2022-08-14T03:18:23;5.60;;;5.10;;
15833;SDS011;8017;50.812;4.934;2022-08-14T03:21:27;6.30;;;5.70;;
15833;SDS011;8017;50.812;4.934;2022-08-14T03:24:31;6.57;;;5.40;;
15833;SDS011;8017;50.812;4.934;2022-08-14T03:27:35;6.60;;;5.03;;
15833;SDS011;8017;50.812;4.934;2022-08-14T03:30:37;6.33;;;5.70;;
15833;SDS011;8017;50.812;4.934;2022-08-14T03:33:41;6.73;;;6.07;;
15833;SDS011;8017;50.812;4.934;2022-08-14T03:36:43;7.00;;;6.40;;
15833;SDS011;8017;50.812;4.934;2022-08-14T03:39:47;6.50;;;5.97;;
15833;SDS011;8017;50.812;4.934;2022-08-14T03:42:48;8.80;;;6.60;;
15833;SDS011;8017;50.812;4.934;2022-08-14T03:45:50;6.57;;;5.97;;
15833;SDS011;8017;50.812;4.934;2022-08-14T03:48:53;8.70;;;6.17;;
15833;SDS011;8017;50.812;4.934;2022-08-14T03:51:55;7.03;;;5.87;;
15833;SDS011;8017;50.812;4.934;2022-08-14T03:54:59;7.20;;;6.50;;
15833;SDS011;8017;50.812;4.934;2022-08-14T03:58:02;6.40;;;5.90;;
15833;SDS011;8017;50.812;4.934;2022-08-14T04:01:04;9.00;;;6.77;;
15833;SDS011;8017;50.812;4.934;2022-08-14T04:04:07;6.73;;;6.00;;
15833;SDS011;8017;50.812;4.934;2022-08-14T04:07:09;6.73;;;6.00;;
15833;SDS011;8017;50.812;4.934;2022-08-14T04:10:12;7.10;;;6.10;;
15833;SDS011;8017;50.812;4.934;2022-08-14T04:13:14;8.83;;;6.20;;
15833;SDS011;8017;50.812;4.934;2022-08-14T04:16:17;7.97;;;5.83;;
15833;SDS011;8017;50.812;4.934;2022-08-14T04:19:21;7.30;;;6.60;;
15833;SDS011;8017;50.812;4.934;2022-08-14T04:22:23;8.87;;;6.10;;
15833;SDS011;8017;50.812;4.934;2022-08-14T04:25:27;7.10;;;6.50;;
15833;SDS011;8017;50.812;4.934;2022-08-14T04:28:33;6.83;;;6.23;;
15833;SDS011;8017;50.812;4.934;2022-08-14T04:31:36;6.80;;;6.10;;
15833;SDS011;8017;50.812;4.934;2022-08-14T04:34:38;8.87;;;6.47;;
15833;SDS011;8017;50.812;4.934;2022-08-14T04:37:40;7.20;;;6.10;;
15833;SDS011;8017;50.812;4.934;2022-08-14T04:41:01;5.90;;;5.37;;
15833;SDS011;8017;50.812;4.934;2022-08-14T04:44:20;7.20;;;5.60;;
15833;SDS011;8017;50.812;4.934;2022-08-14T04:47:22;6.17;;;5.57;;
15833;SDS011;8017;50.812;4.934;2022-08-14T04:50:43;6.50;;;5.90;;
15833;SDS011;8017;50.812;4.934;2022-08-14T04:53:47;5.97;;;5.40;;
15833;SDS011;8017;50.812;4.934;2022-08-14T04:56:50;6.57;;;5.17;;
15833;SDS011;8017;50.812;4.934;2022-08-14T04:59:54;8.83;;;5.87;;
15833;SDS011;8017;50.812;4.934;2022-08-14T05:02:55;7.27;;;5.70;;
15833;SDS011;8017;50.812;4.934;2022-08-14T05:05:59;5.90;;;5.40;;
15833;SDS011;8017;50.812;4.934;2022-08-14T05:09:02;7.67;;;5.43;;
15833;SDS011;8017;50.812;4.934;2022-08-14T05:12:07;8.20;;;5.30;;
15833;SDS011;8017;50.812;4.934;2022-08-14T05:15:11;5.43;;;4.90;;
15833;SDS011;8017;50.812;4.934;2022-08-14T05:18:13;7.33;;;4.90;;
15833;SDS011;8017;50.812;4.934;2022-08-14T05:21:17;6.87;;;4.77;;
15833;SDS011;8017;50.812;4.934;2022-08-14T05:24:18;6.77;;;5.17;;
15833;SDS011;8017;50.812;4.934;2022-08-14T05:27:22;6.63;;;4.97;;
15833;SDS011;8017;50.812;4.934;2022-08-14T05:30:23;6.47;;;5.10;;
15833;SDS011;8017;50.812;4.934;2022-08-14T05:33:26;7.40;;;4.90;;
15833;SDS011;8017;50.812;4.934;2022-08-14T05:36:30;6.93;;;5.20;;
15833;SDS011;8017;50.812;4.934;2022-08-14T05:39:32;6.73;;;5.00;;
15833;SDS011;8017;50.812;4.934;2022-08-14T05:42:35;6.33;;;5.47;;
15833;SDS011;8017;50.812;4.934;2022-08-14T05:45:37;5.93;;;5.33;;
15833;SDS011;8017;50.812;4.934;2022-08-14T05:48:40;6.17;;;5.53;;
15833;SDS011;8017;50.812;4.934;2022-08-14T05:51:42;5.63;;;5.07;;
15833;SDS011;8017;50.812;4.934;2022-08-14T05:54:45;6.60;;;5.90;;
15833;SDS011;8017;50.812;4.934;2022-08-14T05:57:49;5.80;;;5.20;;
15833;SDS011;8017;50.812;4.934;2022-08-14T06:00:53;6.27;;;5.67;;
15833;SDS011;8017;50.812;4.934;2022-08-14T06:03:56;6.37;;;5.77;;
15833;SDS011;8017;50.812;4.934;2022-08-14T06:06:58;7.83;;;6.10;;
15833;SDS011;8017;50.812;4.934;2022-08-14T06:10:00;7.43;;;5.50;;
15833;SDS011;8017;50.812;4.934;2022-08-14T06:13:03;6.10;;;5.50;;
15833;SDS011;8017;50.812;4.934;2022-08-14T06:16:06;5.93;;;5.33;;
15833;SDS011;8017;50.812;4.934;2022-08-14T06:19:08;6.93;;;5.83;;
15833;SDS011;8017;50.812;4.934;2022-08-14T06:22:10;8.20;;;6.33;;
15833;SDS011;8017;50.812;4.934;2022-08-14T06:25:12;6.70;;;6.10;;
15833;SDS011;8017;50.812;4.934;2022-08-14T06:28:16;5.50;;;5.00;;
15833;SDS011;8017;50.812;4.934;2022-08-14T06:31:19;7.80;;;6.23;;
15833;SDS011;8017;50.812;4.934;2022-08-14T06:34:21;6.10;;;5.50;;
15833;SDS011;8017;50.812;4.934;2022-08-14T06:37:23;5.80;;;5.30;;
15833;SDS011;8017;50.812;4.934;2022-08-14T06:40:27;6.40;;;5.10;;
15833;SDS011;8017;50.812;4.934;2022-08-14T06:43:31;7.17;;;5.63;;
15833;SDS011;8017;50.812;4.934;2022-08-14T06:46:33;6.50;;;4.97;;
15833;SDS011;8017;50.812;4.934;2022-08-14T06:49:35;5.13;;;4.63;;
15833;SDS011;8017;50.812;4.934;2022-08-14T06:52:38;5.10;;;4.70;;
15833;SDS011;8017;50.812;4.934;2022-08-14T06:55:40;5.07;;;4.57;;
15833;SDS011;8017;50.812;4.934;2022-08-14T06:58:43;4.87;;;4.30;;
15833;SDS011;8017;50.812;4.934;2022-08-14T07:01:45;5.67;;;4.53;;
15833;SDS011;8017;50.812;4.934;2022-08-14T07:05:05;5.23;;;4.53;;
15833;SDS011;8017;50.812;4.934;2022-08-14T07:08:25;5.80;;;4.40;;
15833;SDS011;8017;50.812;4.934;2022-08-14T07:11:28;4.67;;;4.23;;
15833;SDS011;8017;50.812;4.934;2022-08-14T07:14:31;4.67;;;4.27;;
15833;SDS011;8017;50.812;4.934;2022-08-14T07:17:42;4.40;;;4.00;;
15833;SDS011;8017;50.812;4.934;2022-08-14T07:20:44;4.20;;;3.80;;
15833;SDS011;8017;50.812;4.934;2022-08-14T07:23:46;7.30;;;3.90;;
15833;SDS011;8017;50.812;4.934;2022-08-14T07:26:48;4.67;;;4.20;;
15833;SDS011;8017;50.812;4.934;2022-08-14T07:29:51;6.53;;;4.10;;
15833;SDS011;8017;50.812;4.934;2022-08-14T07:32:53;4.73;;;4.00;;
15833;SDS011;8017;50.812;4.934;2022-08-14T07:35:56;6.93;;;3.77;;
15833;SDS011;8017;50.812;4.934;2022-08-14T07:38:59;3.90;;;3.60;;
15833;SDS011;8017;50.812;4.934;2022-08-14T07:42:01;4.03;;;3.63;;
15833;SDS011;8017;50.812;4.934;2022-08-14T07:45:05;9.23;;;3.93;;
15833;SDS011;8017;50.812;4.934;2022-08-14T07:48:07;3.60;;;3.30;;
15833;SDS011;8017;50.812;4.934;2022-08-14T07:51:09;4.23;;;3.53;;
15833;SDS011;8017;50.812;4.934;2022-08-14T07:54:11;4.27;;;3.10;;
15833;SDS011;8017;50.812;4.934;2022-08-14T07:57:14;3.60;;;2.80;;
15833;SDS011;8017;50.812;4.934;2022-08-14T08:00:19;3.97;;;3.47;;
15833;SDS011;8017;50.812;4.934;2022-08-14T08:03:22;3.77;;;3.27;;
15833;SDS011;8017;50.812;4.934;2022-08-14T08:06:26;3.30;;;3.00;;
15833;SDS011;8017;50.812;4.934;2022-08-14T08:09:29;4.77;;;3.00;;
15833;SDS011;8017;50.812;4.934;2022-08-14T08:12:35;3.73;;;3.20;;
15833;SDS011;8017;50.812;4.934;2022-08-14T08:15:38;3.20;;;2.90;;
15833;SDS011;8017;50.812;4.934;2022-08-14T08:18:41;6.43;;;3.10;;
15833;SDS011;8017;50.812;4.934;2022-08-14T08:21:43;8.43;;;3.13;;
15833;SDS011;8017;50.812;4.934;2022-08-14T08:24:46;5.07;;;3.23;;
15833;SDS011;8017;50.812;4.934;2022-08-14T08:27:55;6.37;;;2.97;;
15833;SDS011;8017;50.812;4.934;2022-08-14T08:31:00;3.40;;;2.60;;
15833;SDS011;8017;50.812;4.934;2022-08-14T08:34:04;2.97;;;2.30;;
15833;SDS011;8017;50.812;4.934;2022-08-14T08:37:06;5.23;;;2.67;;
15833;SDS011;8017;50.812;4.934;2022-08-14T08:40:08;4.10;;;2.83;;
15833;SDS011;8017;50.812;4.934;2022-08-14T08:43:16;2.73;;;2.53;;
15833;SDS011;8017;50.812;4.934;2022-08-14T08:46:21;4.27;;;2.57;;
15833;SDS011;8017;50.812;4.934;2022-08-14T08:49:33;5.67;;;2.70;;
15833;SDS011;8017;50.812;4.934;2022-08-14T08:52:45;3.83;;;2.60;;
15833;SDS011;8017;50.812;4.934;2022-08-14T08:55:48;4.00;;;2.90;;
15833;SDS011;8017;50.812;4.934;2022-08-14T08:58:50;4.60;;;2.63;;
15833;SDS011;8017;50.812;4.934;2022-08-14T09:01:54;5.57;;;2.53;;
15833;SDS011;8017;50.812;4.934;2022-08-14T09:05:00;4.47;;;2.50;;
15833;SDS011;8017;50.812;4.934;2022-08-14T09:08:10;4.15;;;2.42;;
15833;SDS011;8017;50.812;4.934;2022-08-14T09:11:13;2.33;;;2.10;;
15833;SDS011;8017;50.812;4.934;2022-08-14T09:14:15;2.85;;;2.25;;
15833;SDS011;8017;50.812;4.934;2022-08-14T09:17:18;4.07;;;2.17;;
15833;SDS011;8017;50.812;4.934;2022-08-14T09:20:20;3.25;;;1.77;;
15833;SDS011;8017;50.812;4.934;2022-08-14T09:23:23;2.03;;;1.70;;
15833;SDS011;8017;50.812;4.934;2022-08-14T09:26:25;3.25;;;1.92;;
15833;SDS011;8017;50.812;4.934;2022-08-14T09:29:27;2.92;;;1.48;;
15833;SDS011;8017;50.812;4.934;2022-08-14T09:32:34;3.33;;;1.42;;
15833;SDS011;8017;50.812;4.934;2022-08-14T09:35:46;4.63;;;1.83;;
15833;SDS011;8017;50.812;4.934;2022-08-14T09:39:00;3.65;;;1.75;;
15833;SDS011;8017;50.812;4.934;2022-08-14T09:45:34;2.00;;;1.50;;
15833;SDS011;8017;50.812;4.934;2022-08-14T09:48:44;2.15;;;1.70;;
15833;SDS011;8017;50.812;4.934;2022-08-14T09:51:48;3.70;;;1.60;;
15833;SDS011;8017;50.812;4.934;2022-08-14T09:54:50;1.85;;;1.67;;
15833;SDS011;8017;50.812;4.934;2022-08-14T09:58:00;2.08;;;1.70;;
15833;SDS011;8017;50.812;4.934;2022-08-14T10:01:11;3.42;;;1.38;;
15833;SDS011;8017;50.812;4.934;2022-08-14T10:04:20;1.60;;;1.38;;
15833;SDS011;8017;50.812;4.934;2022-08-14T10:07:28;1.88;;;1.48;;
15833;SDS011;8017;50.812;4.934;2022-08-14T10:10:31;2.83;;;1.52;;
15833;SDS011;8017;50.812;4.934;2022-08-14T10:13:35;3.42;;;1.30;;
15833;SDS011;8017;50.812;4.934;2022-08-14T10:16:40;2.15;;;1.23;;
15833;SDS011;8017;50.812;4.934;2022-08-14T10:19:47;1.98;;;1.40;;
15833;SDS011;8017;50.812;4.934;2022-08-14T10:22:49;2.78;;;1.60;;
15833;SDS011;8017;50.812;4.934;2022-08-14T10:25:52;3.03;;;2.72;;
15833;SDS011;8017;50.812;4.934;2022-08-14T10:29:03;2.00;;;1.30;;
15833;SDS011;8017;50.812;4.934;2022-08-14T10:32:07;1.95;;;1.10;;
15833;SDS011;8017;50.812;4.934;2022-08-14T10:35:12;4.85;;;2.58;;
15833;SDS011;8017;50.812;4.934;2022-08-14T10:38:24;2.17;;;1.58;;
15833;SDS011;8017;50.812;4.934;2022-08-14T10:41:34;4.00;;;1.98;;
15833;SDS011;8017;50.812;4.934;2022-08-14T10:44:39;5.28;;;2.67;;
15833;SDS011;8017;50.812;4.934;2022-08-14T10:47:45;2.30;;;1.55;;
15833;SDS011;8017;50.812;4.934;2022-08-14T10:50:48;1.38;;;1.25;;
15833;SDS011;8017;50.812;4.934;2022-08-14T10:53:53;2.13;;;1.55;;
15833;SDS011;8017;50.812;4.934;2022-08-14T10:56:55;3.72;;;2.58;;
15833;SDS011;8017;50.812;4.934;2022-08-14T10:59:59;4.70;;;1.70;;
15833;SDS011;8017;50.812;4.934;2022-08-14T11:03:03;2.35;;;2.15;;
15833;SDS011;8017;50.812;4.934;2022-08-14T11:06:14;3.25;;;2.00;;
15833;SDS011;8017;50.812;4.934;2022-08-14T11:09:18;2.30;;;2.10;;
15833;SDS011;8017;50.812;4.934;2022-08-14T11:12:20;7.63;;;3.40;;
15833;SDS011;8017;50.812;4.934;2022-08-14T11:15:23;6.20;;;5.50;;
15833;SDS011;8017;50.812;4.934;2022-08-14T11:18:27;3.63;;;1.55;;
15833;SDS011;8017;50.812;4.934;2022-08-14T11:21:32;3.72;;;2.30;;
15833;SDS011;8017;50.812;4.934;2022-08-14T11:24:39;4.97;;;4.25;;
15833;SDS011;8017;50.812;4.934;2022-08-14T11:27:44;14.60;;;11.65;;
15833;SDS011;8017;50.812;4.934;2022-08-14T11:30:48;2.72;;;2.50;;
15833;SDS011;8017;50.812;4.934;2022-08-14T11:33:51;5.28;;;3.00;;
15833;SDS011;8017;50.812;4.934;2022-08-14T11:36:57;2.22;;;1.35;;
15833;SDS011;8017;50.812;4.934;2022-08-14T11:40:14;2.80;;;1.60;;
15833;SDS011;8017;50.812;4.934;2022-08-14T11:43:16;4.45;;;2.45;;
15833;SDS011;8017;50.812;4.934;2022-08-14T11:46:19;5.00;;;3.22;;
15833;SDS011;8017;50.812;4.934;2022-08-14T11:49:24;6.15;;;3.63;;
15833;SDS011;8017;50.812;4.934;2022-08-14T11:52:33;2.28;;;1.40;;
15833;SDS011;8017;50.812;4.934;2022-08-14T11:55:37;2.85;;;1.33;;
15833;SDS011;8017;50.812;4.934;2022-08-14T11:58:39;2.58;;;1.38;;
15833;SDS011;8017;50.812;4.934;2022-08-14T12:01:41;1.95;;;1.67;;
15833;SDS011;8017;50.812;4.934;2022-08-14T12:04:48;2.20;;;1.30;;
15833;SDS011;8017;50.812;4.934;2022-08-14T12:07:52;2.90;;;1.45;;
15833;SDS011;8017;50.812;4.934;2022-08-14T12:10:54;3.08;;;1.67;;
15833;SDS011;8017;50.812;4.934;2022-08-14T12:14:05;1.38;;;1.27;;
15833;SDS011;8017;50.812;4.934;2022-08-14T12:17:07;2.85;;;1.30;;
15833;SDS011;8017;50.812;4.934;2022-08-14T12:20:09;1.77;;;1.48;;
15833;SDS011;8017;50.812;4.934;2022-08-14T12:23:21;4.18;;;1.83;;
15833;SDS011;8017;50.812;4.934;2022-08-14T12:26:24;1.73;;;1.52;;
15833;SDS011;8017;50.812;4.934;2022-08-14T12:29:26;1.40;;;1.30;;
15833;SDS011;8017;50.812;4.934;2022-08-14T12:32:37;1.73;;;1.30;;
15833;SDS011;8017;50.812;4.934;2022-08-14T12:35:41;1.88;;;1.33;;
15833;SDS011;8017;50.812;4.934;2022-08-14T12:38:45;3.85;;;1.75;;
15833;SDS011;8017;50.812;4.934;2022-08-14T12:41:50;1.48;;;1.20;;
15833;SDS011;8017;50.812;4.934;2022-08-14T12:45:01;3.52;;;1.70;;
15833;SDS011;8017;50.812;4.934;2022-08-14T12:48:04;4.30;;;1.50;;
15833;SDS011;8017;50.812;4.934;2022-08-14T12:51:13;1.63;;;1.52;;
15833;SDS011;8017;50.812;4.934;2022-08-14T12:54:18;2.42;;;1.48;;
15833;SDS011;8017;50.812;4.934;2022-08-14T12:57:20;4.75;;;1.67;;
15833;SDS011;8017;50.812;4.934;2022-08-14T13:00:23;4.05;;;1.30;;
15833;SDS011;8017;50.812;4.934;2022-08-14T13:03:25;3.05;;;1.60;;
15833;SDS011;8017;50.812;4.934;2022-08-14T13:06:29;2.72;;;1.50;;
15833;SDS011;8017;50.812;4.934;2022-08-14T13:09:32;2.05;;;1.45;;
15833;SDS011;8017;50.812;4.934;2022-08-14T13:12:36;2.10;;;1.30;;
15833;SDS011;8017;50.812;4.934;2022-08-14T13:15:38;1.52;;;1.40;;
15833;SDS011;8017;50.812;4.934;2022-08-14T13:18:42;2.38;;;1.83;;
15833;SDS011;8017;50.812;4.934;2022-08-14T13:21:46;2.22;;;1.58;;
15833;SDS011;8017;50.812;4.934;2022-08-14T13:24:51;1.52;;;1.13;;
15833;SDS011;8017;50.812;4.934;2022-08-14T13:27:56;2.80;;;1.60;;
15833;SDS011;8017;50.812;4.934;2022-08-14T13:30:59;1.98;;;1.30;;
15833;SDS011;8017;50.812;4.934;2022-08-14T13:34:03;2.75;;;1.40;;
15833;SDS011;8017;50.812;4.934;2022-08-14T13:37:06;2.97;;;1.58;;
15833;SDS011;8017;50.812;4.934;2022-08-14T13:40:10;2.15;;;1.30;;
15833;SDS011;8017;50.812;4.934;2022-08-14T13:43:13;2.70;;;1.48;;
15833;SDS011;8017;50.812;4.934;2022-08-14T13:46:17;2.05;;;1.60;;
15833;SDS011;8017;50.812;4.934;2022-08-14T13:49:19;3.58;;;1.70;;
15833;SDS011;8017;50.812;4.934;2022-08-14T13:52:21;2.45;;;1.70;;
15833;SDS011;8017;50.812;4.934;2022-08-14T13:55:26;2.35;;;1.83;;
15833;SDS011;8017;50.812;4.934;2022-08-14T13:58:31;3.20;;;1.48;;
15833;SDS011;8017;50.812;4.934;2022-08-14T14:01:34;1.70;;;1.30;;
15833;SDS011;8017;50.812;4.934;2022-08-14T14:04:38;2.45;;;1.60;;
15833;SDS011;8017;50.812;4.934;2022-08-14T14:07:43;3.72;;;1.80;;
15833;SDS011;8017;50.812;4.934;2022-08-14T14:10:47;2.20;;;1.60;;
15833;SDS011;8017;50.812;4.934;2022-08-14T14:13:53;4.20;;;1.77;;
15833;SDS011;8017;50.812;4.934;2022-08-14T14:16:56;2.03;;;1.63;;
15833;SDS011;8017;50.812;4.934;2022-08-14T14:20:00;2.85;;;1.52;;
15833;SDS011;8017;50.812;4.934;2022-08-14T14:23:04;2.95;;;1.70;;
15833;SDS011;8017;50.812;4.934;2022-08-14T14:26:10;1.60;;;1.50;;
15833;SDS011;8017;50.812;4.934;2022-08-14T14:29:15;2.45;;;1.45;;
15833;SDS011;8017;50.812;4.934;2022-08-14T14:32:19;2.72;;;1.65;;
15833;SDS011;8017;50.812;4.934;2022-08-14T14:35:26;3.25;;;1.60;;
15833;SDS011;8017;50.812;4.934;2022-08-14T14:38:28;2.38;;;1.80;;
15833;SDS011;8017;50.812;4.934;2022-08-14T14:41:36;3.67;;;2.15;;
15833;SDS011;8017;50.812;4.934;2022-08-14T14:44:40;2.33;;;1.52;;
15833;SDS011;8017;50.812;4.934;2022-08-14T14:47:45;2.60;;;1.90;;
15833;SDS011;8017;50.812;4.934;2022-08-14T14:50:49;5.53;;;1.75;;
15833;SDS011;8017;50.812;4.934;2022-08-14T14:53:52;3.85;;;2.10;;
15833;SDS011;8017;50.812;4.934;2022-08-14T14:56:55;3.95;;;2.50;;
15833;SDS011;8017;50.812;4.934;2022-08-14T14:59:59;2.22;;;2.08;;
15833;SDS011;8017;50.812;4.934;2022-08-14T15:03:01;3.35;;;1.70;;
15833;SDS011;8017;50.812;4.934;2022-08-14T15:06:03;4.35;;;1.70;;
15833;SDS011;8017;50.812;4.934;2022-08-14T15:09:06;2.47;;;1.70;;
15833;SDS011;8017;50.812;4.934;2022-08-14T15:12:10;1.98;;;1.50;;
15833;SDS011;8017;50.812;4.934;2022-08-14T15:15:12;1.55;;;1.42;;
15833;SDS011;8017;50.812;4.934;2022-08-14T15:18:14;2.28;;;1.77;;
15833;SDS011;8017;50.812;4.934;2022-08-14T15:21:16;2.88;;;1.60;;
15833;SDS011;8017;50.812;4.934;2022-08-14T15:24:18;1.65;;;1.33;;
15833;SDS011;8017;50.812;4.934;2022-08-14T15:27:21;2.90;;;1.70;;
15833;SDS011;8017;50.812;4.934;2022-08-14T15:30:23;1.90;;;1.60;;
15833;SDS011;8017;50.812;4.934;2022-08-14T15:33:25;4.72;;;1.60;;
15833;SDS011;8017;50.812;4.934;2022-08-14T15:36:45;3.28;;;1.90;;
15833;SDS011;8017;50.812;4.934;2022-08-14T15:39:47;1.75;;;1.65;;
15833;SDS011;8017;50.812;4.934;2022-08-14T15:42:51;2.72;;;1.70;;
15833;SDS011;8017;50.812;4.934;2022-08-14T15:45:52;2.38;;;2.00;;
15833;SDS011;8017;50.812;4.934;2022-08-14T15:48:55;1.90;;;1.80;;
15833;SDS011;8017;50.812;4.934;2022-08-14T15:51:57;3.40;;;1.60;;
15833;SDS011;8017;50.812;4.934;2022-08-14T15:54:59;1.58;;;1.20;;
15833;SDS011;8017;50.812;4.934;2022-08-14T15:58:03;1.20;;;1.10;;
15833;SDS011;8017;50.812;4.934;2022-08-14T16:01:05;1.88;;;1.50;;
15833;SDS011;8017;50.812;4.934;2022-08-14T16:04:24;2.35;;;1.40;;
15833;SDS011;8017;50.812;4.934;2022-08-14T16:07:26;3.28;;;2.40;;
15833;SDS011;8017;50.812;4.934;2022-08-14T16:10:28;2.45;;;2.25;;
15833;SDS011;8017;50.812;4.934;2022-08-14T16:13:31;2.45;;;2.22;;
15833;SDS011;8017;50.812;4.934;2022-08-14T16:16:37;3.03;;;1.80;;
15833;SDS011;8017;50.812;4.934;2022-08-14T16:19:40;2.53;;;1.60;;
15833;SDS011;8017;50.812;4.934;2022-08-14T16:22:44;2.33;;;1.63;;
15833;SDS011;8017;50.812;4.934;2022-08-14T16:25:47;1.83;;;1.55;;
15833;SDS011;8017;50.812;4.934;2022-08-14T16:28:51;3.35;;;1.90;;
15833;SDS011;8017;50.812;4.934;2022-08-14T16:31:53;1.90;;;1.70;;
15833;SDS011;8017;50.812;4.934;2022-08-14T16:34:56;4.15;;;1.98;;
15833;SDS011;8017;50.812;4.934;2022-08-14T16:37:58;1.88;;;1.50;;
15833;SDS011;8017;50.812;4.934;2022-08-14T16:41:03;1.52;;;1.42;;
15833;SDS011;8017;50.812;4.934;2022-08-14T16:44:21;1.85;;;1.10;;
15833;SDS011;8017;50.812;4.934;2022-08-14T16:47:26;2.03;;;1.17;;
15833;SDS011;8017;50.812;4.934;2022-08-14T16:50:29;1.63;;;1.30;;
15833;SDS011;8017;50.812;4.934;2022-08-14T16:53:31;2.92;;;1.63;;
15833;SDS011;8017;50.812;4.934;2022-08-14T16:56:34;1.65;;;1.23;;
15833;SDS011;8017;50.812;4.934;2022-08-14T16:59:38;2.60;;;1.25;;
15833;SDS011;8017;50.812;4.934;2022-08-14T17:02:40;3.58;;;1.20;;
15833;SDS011;8017;50.812;4.934;2022-08-14T17:05:43;5.20;;;1.20;;
15833;SDS011;8017;50.812;4.934;2022-08-14T17:08:45;2.50;;;1.15;;
15833;SDS011;8017;50.812;4.934;2022-08-14T17:11:48;2.80;;;1.55;;
15833;SDS011;8017;50.812;4.934;2022-08-14T17:14:58;2.00;;;1.17;;
15833;SDS011;8017;50.812;4.934;2022-08-14T17:18:02;2.40;;;1.40;;
15833;SDS011;8017;50.812;4.934;2022-08-14T17:21:14;3.13;;;1.20;;
15833;SDS011;8017;50.812;4.934;2022-08-14T17:24:21;4.55;;;1.23;;
15833;SDS011;8017;50.812;4.934;2022-08-14T17:27:23;2.58;;;1.30;;
15833;SDS011;8017;50.812;4.934;2022-08-14T17:30:26;2.53;;;1.40;;
15833;SDS011;8017;50.812;4.934;2022-08-14T17:33:49;2.95;;;1.65;;
15833;SDS011;8017;50.812;4.934;2022-08-14T17:36:53;1.77;;;1.40;;
15833;SDS011;8017;50.812;4.934;2022-08-14T17:39:59;4.47;;;1.83;;
15833;SDS011;8017;50.812;4.934;2022-08-14T17:43:03;1.50;;;1.40;;
15833;SDS011;8017;50.812;4.934;2022-08-14T17:46:07;1.95;;;1.30;;
15833;SDS011;8017;50.812;4.934;2022-08-14T17:49:10;2.08;;;1.50;;
15833;SDS011;8017;50.812;4.934;2022-08-14T17:52:14;3.10;;;1.85;;
15833;SDS011;8017;50.812;4.934;2022-08-14T17:55:19;2.30;;;1.88;;
15833;SDS011;8017;50.812;4.934;2022-08-14T17:58:22;2.33;;;2.00;;
15833;SDS011;8017;50.812;4.934;2022-08-14T18:01:25;5.65;;;2.20;;
15833;SDS011;8017;50.812;4.934;2022-08-14T18:04:29;3.20;;;1.90;;
15833;SDS011;8017;50.812;4.934;2022-08-14T18:07:31;4.88;;;1.52;;
15833;SDS011;8017;50.812;4.934;2022-08-14T18:10:35;3.38;;;1.77;;
15833;SDS011;8017;50.812;4.934;2022-08-14T18:13:39;2.45;;;2.10;;
15833;SDS011;8017;50.812;4.934;2022-08-14T18:16:44;2.78;;;1.60;;
15833;SDS011;8017;50.812;4.934;2022-08-14T18:19:47;5.05;;;1.50;;
15833;SDS011;8017;50.812;4.934;2022-08-14T18:22:50;2.28;;;1.40;;
15833;SDS011;8017;50.812;4.934;2022-08-14T18:25:52;2.58;;;1.45;;
15833;SDS011;8017;50.812;4.934;2022-08-14T18:28:56;1.65;;;1.55;;
15833;SDS011;8017;50.812;4.934;2022-08-14T18:32:00;2.85;;;2.00;;
15833;SDS011;8017;50.812;4.934;2022-08-14T18:35:03;3.65;;;1.83;;
15833;SDS011;8017;50.812;4.934;2022-08-14T18:38:14;2.28;;;1.58;;
15833;SDS011;8017;50.812;4.934;2022-08-14T18:41:24;2.40;;;1.70;;
15833;SDS011;8017;50.812;4.934;2022-08-14T18:51:30;1.50;;;1.40;;
15833;SDS011;8017;50.812;4.934;2022-08-14T18:54:34;3.40;;;1.50;;
15833;SDS011;8017;50.812;4.934;2022-08-14T19:01:20;4.10;;;1.80;;